createdAt,value
2017-09-10T00:00:05.001Z,99720.68
2017-09-10T00:02:40.284Z,99720.86
2017-09-10T00:05:14.865Z,99726.47
2017-09-10T00:07:50.236Z,99722.28
2017-09-10T00:10:25.069Z,99724.31
2017-09-10T00:13:00.253Z,99725.75
2017-09-10T00:15:34.718Z,99723.97
2017-09-10T00:18:10.393Z,99723.16
2017-09-10T00:20:44.875Z,99726.87
2017-09-10T00:23:19.829Z,99727.64
2017-09-10T00:25:54.779Z,99730.74
2017-09-10T00:28:29.612Z,99728.13
2017-09-10T00:31:04.658Z,99737.50
2017-09-10T00:33:39.484Z,99733.83
2017-09-10T00:36:14.173Z,99733.04
2017-09-10T00:38:49.025Z,99729.00
2017-09-10T00:41:23.852Z,99726.17
2017-09-10T00:43:58.880Z,99728.95
2017-09-10T00:46:33.935Z,99725.75
2017-09-10T00:49:08.984Z,99730.45
2017-09-10T00:51:43.648Z,99733.39
2017-09-10T00:54:17.742Z,99730.17
2017-09-10T00:56:53.096Z,99733.36
2017-09-10T00:59:27.797Z,99735.20
2017-09-10T01:02:02.452Z,99739.34
2017-09-10T01:04:37.337Z,99742.49
2017-09-10T01:07:12.155Z,99747.78
2017-09-10T01:09:47.108Z,99747.22
2017-09-10T01:12:21.811Z,99745.27
2017-09-10T01:14:56.815Z,99753.20
2017-09-10T01:17:31.853Z,99747.97
2017-09-10T01:20:06.259Z,99748.51
2017-09-10T01:22:41.031Z,99750.33
2017-09-10T01:25:16.035Z,99751.30
2017-09-10T01:27:51.107Z,99757.70
2017-09-10T01:30:25.531Z,99759.84
2017-09-10T01:33:00.846Z,99761.56
2017-09-10T01:35:35.528Z,99762.28
2017-09-10T01:38:10.852Z,99757.50
2017-09-10T01:40:45.396Z,99759.66
2017-09-10T01:43:20.569Z,99755.79
2017-09-10T01:45:54.993Z,99755.73
2017-09-10T01:48:29.887Z,99760.14
2017-09-10T01:51:04.619Z,99765.06
2017-09-10T01:53:39.771Z,99766.56
2017-09-10T01:56:14.609Z,99765.89
2017-09-10T01:58:49.398Z,99762.20
2017-09-10T02:01:24.020Z,99774.77
2017-09-10T02:03:58.964Z,99773.06
2017-09-10T02:06:34.019Z,99781.86
2017-09-10T02:09:08.845Z,99786.39
2017-09-10T02:11:44.041Z,99783.42
2017-09-10T02:14:19.215Z,99785.01
2017-09-10T02:16:54.073Z,99789.86
2017-09-10T02:19:28.961Z,99788.67
2017-09-10T02:22:03.704Z,99791.38
2017-09-10T02:24:38.536Z,99797.30
2017-09-10T02:27:13.085Z,99790.91
2017-09-10T02:29:47.987Z,99791.36
2017-09-10T02:32:22.794Z,99798.18
2017-09-10T02:34:57.948Z,99798.97
2017-09-10T02:37:32.804Z,99792.39
2017-09-10T02:40:07.710Z,99802.91
2017-09-10T02:42:42.761Z,99807.73
2017-09-10T02:45:17.665Z,99810.16
2017-09-10T02:47:52.662Z,99805.48
2017-09-10T02:50:27.597Z,99813.92
2017-09-10T02:53:02.501Z,99815.47
2017-09-10T02:55:37.219Z,99821.49
2017-09-10T02:58:12.175Z,99821.57
2017-09-10T03:00:46.984Z,99828.67
2017-09-10T03:03:21.813Z,99816.54
2017-09-10T03:05:56.565Z,99821.33
2017-09-10T03:08:31.396Z,99819.65
2017-09-10T03:11:06.505Z,99826.66
2017-09-10T03:13:41.673Z,99817.86
2017-09-10T03:16:16.780Z,99835.23
2017-09-10T03:18:51.627Z,99829.06
2017-09-10T03:21:26.361Z,99829.89
2017-09-10T03:24:01.292Z,99837.47
2017-09-10T03:26:36.041Z,99836.48
2017-09-10T03:29:11.064Z,99839.45
2017-09-10T03:31:45.876Z,99834.92
2017-09-10T03:34:20.648Z,99837.47
2017-09-10T03:36:55.703Z,99837.87
2017-09-10T03:39:30.481Z,99846.63
2017-09-10T03:42:05.608Z,99842.27
2017-09-10T03:44:40.477Z,99843.45
2017-09-10T03:47:15.509Z,99848.87
2017-09-10T03:49:50.055Z,99846.14
2017-09-10T03:52:24.974Z,99846.91
2017-09-10T03:54:59.980Z,99843.30
2017-09-10T03:57:34.649Z,99845.95
2017-09-10T04:00:09.519Z,99851.03
2017-09-10T04:02:44.765Z,99849.36
2017-09-10T04:05:19.496Z,99858.72
2017-09-10T04:07:54.711Z,99853.89
2017-09-10T04:10:29.431Z,99852.09
2017-09-10T04:13:04.460Z,99854.55
2017-09-10T04:15:39.172Z,99855.55
2017-09-10T04:18:13.669Z,99856.11
2017-09-10T04:20:48.644Z,99861.42
2017-09-10T04:23:22.868Z,99863.91
2017-09-10T04:25:58.239Z,99872.84
2017-09-10T04:28:32.973Z,99870.30
2017-09-10T04:31:07.378Z,99873.55
2017-09-10T04:33:42.525Z,99877.75
2017-09-10T04:36:17.468Z,99874.89
2017-09-10T04:38:52.499Z,99881.08
2017-09-10T04:41:27.327Z,99885.28
2017-09-10T04:44:01.992Z,99875.92
2017-09-10T04:46:38.123Z,99876.70
2017-09-10T04:49:12.849Z,99878.46
2017-09-10T04:51:47.801Z,99880.16
2017-09-10T04:54:22.672Z,99883.56
2017-09-10T04:56:57.529Z,99883.44
2017-09-10T04:59:32.635Z,99877.97
2017-09-10T05:02:07.292Z,99881.46
2017-09-10T05:04:41.933Z,99879.16
2017-09-10T05:07:16.595Z,99889.67
2017-09-10T05:09:51.924Z,99887.64
2017-09-10T05:12:26.963Z,99886.69
2017-09-10T05:15:01.653Z,99887.77
2017-09-10T05:17:36.547Z,99896.27
2017-09-10T05:20:11.131Z,99897.50
2017-09-10T05:22:46.332Z,99901.23
2017-09-10T05:25:20.663Z,99902.58
2017-09-10T05:27:55.660Z,99905.87
2017-09-10T05:30:30.024Z,99907.89
2017-09-10T05:33:05.169Z,99905.84
2017-09-10T05:35:40.409Z,99902.36
2017-09-10T05:38:15.653Z,99906.20
2017-09-10T05:40:50.827Z,99912.23
2017-09-10T05:43:25.212Z,99915.20
2017-09-10T05:46:00.080Z,99926.98
2017-09-10T05:48:34.926Z,99925.64
2017-09-10T05:51:09.635Z,99924.58
2017-09-10T05:53:44.472Z,99929.26
2017-09-10T05:56:19.303Z,99937.95
2017-09-10T05:58:54.260Z,99938.23
2017-09-10T06:01:29.100Z,99949.61
2017-09-10T06:04:04.335Z,99951.44
2017-09-10T06:06:38.972Z,99952.20
2017-09-10T06:09:14.242Z,99956.37
2017-09-10T06:11:50.129Z,99961.11
2017-09-10T06:14:25.080Z,99949.80
2017-09-10T06:16:59.608Z,99951.51
2017-09-10T06:19:34.508Z,99947.89
2017-09-10T06:22:09.248Z,99949.80
2017-09-10T06:24:44.427Z,99949.48
2017-09-10T06:27:19.068Z,99966.90
2017-09-10T06:29:55.522Z,99960.26
2017-09-10T06:32:29.933Z,99963.45
2017-09-10T06:35:04.396Z,99953.22
2017-09-10T06:37:39.627Z,99963.64
2017-09-10T06:40:14.476Z,99960.87
2017-09-10T06:42:49.319Z,99965.59
2017-09-10T06:45:24.220Z,99963.45
2017-09-10T06:47:58.873Z,99961.75
2017-09-10T06:50:33.810Z,99961.67
2017-09-10T06:53:08.581Z,99966.33
2017-09-10T06:55:43.313Z,99961.58
2017-09-10T06:58:19.161Z,99969.86
2017-09-10T07:00:54.031Z,99964.95
2017-09-10T07:03:28.776Z,99969.05
2017-09-10T07:06:03.825Z,99962.72
2017-09-10T07:08:38.749Z,99971.45
2017-09-10T07:11:13.764Z,99967.12
2017-09-10T07:13:48.981Z,99970.46
2017-09-10T07:16:23.837Z,99970.25
2017-09-10T07:18:58.913Z,99976.99
2017-09-10T07:21:33.922Z,99969.07
2017-09-10T07:24:08.444Z,99975.20
2017-09-10T07:26:43.292Z,99972.83
2017-09-10T07:29:18.524Z,99976.53
2017-09-10T07:31:54.204Z,99974.48
2017-09-10T07:34:29.201Z,99975.16
2017-09-10T07:37:04.292Z,99972.09
2017-09-10T07:39:39.288Z,99972.45
2017-09-10T07:42:14.149Z,99962.93
2017-09-10T07:44:48.991Z,99969.14
2017-09-10T07:47:24.059Z,99970.33
2017-09-10T07:49:58.495Z,99970.59
2017-09-10T07:52:33.295Z,99961.61
2017-09-10T07:55:07.834Z,99971.50
2017-09-10T07:57:42.945Z,99972.44
2017-09-10T08:00:17.988Z,99977.56
2017-09-10T08:02:52.889Z,99974.09
2017-09-10T08:05:27.710Z,99981.58
2017-09-10T08:08:03.463Z,99978.97
2017-09-10T08:10:38.429Z,99976.27
2017-09-10T08:13:12.841Z,99976.31
2017-09-10T08:15:47.443Z,99971.78
2017-09-10T08:18:22.476Z,99977.14
2017-09-10T08:20:57.432Z,99971.53
2017-09-10T08:23:32.223Z,99974.08
2017-09-10T08:26:07.667Z,99975.16
2017-09-10T08:28:42.115Z,99968.63
2017-09-10T08:31:17.124Z,99972.03
2017-09-10T08:33:51.889Z,99969.87
2017-09-10T08:36:26.592Z,99964.59
2017-09-10T08:39:01.481Z,99970.21
2017-09-10T08:41:36.437Z,99972.98
2017-09-10T08:44:11.644Z,99969.44
2017-09-10T08:46:46.476Z,99976.66
2017-09-10T08:49:21.205Z,99982.91
2017-09-10T08:51:56.504Z,99978.88
2017-09-10T08:54:31.553Z,99982.62
2017-09-10T08:57:06.460Z,99967.25
2017-09-10T08:59:41.245Z,99968.66
2017-09-10T09:02:16.272Z,99962.94
2017-09-10T09:04:51.496Z,99961.86
2017-09-10T09:07:26.453Z,99963.53
2017-09-10T09:10:01.378Z,99966.61
2017-09-10T09:12:36.572Z,99963.16
2017-09-10T09:15:11.280Z,99963.11
2017-09-10T09:17:46.232Z,99972.16
2017-09-10T09:20:21.280Z,99965.05
2017-09-10T09:22:56.397Z,99963.91
2017-09-10T09:25:31.400Z,99967.36
2017-09-10T09:28:06.279Z,99964.89
2017-09-10T09:30:41.237Z,99957.20
2017-09-10T09:33:16.188Z,99962.37
2017-09-10T09:35:51.237Z,99964.67
2017-09-10T09:38:26.035Z,99964.23
2017-09-10T09:41:01.065Z,99968.38
2017-09-10T09:43:36.019Z,99978.63
2017-09-10T09:46:11.219Z,99976.39
2017-09-10T09:48:45.854Z,99977.66
2017-09-10T09:51:20.716Z,99976.66
2017-09-10T09:53:54.930Z,99967.66
2017-09-10T09:56:29.992Z,99971.48
2017-09-10T09:59:05.103Z,99984.02
2017-09-10T10:01:39.868Z,99978.58
2017-09-10T10:04:14.753Z,99974.00
2017-09-10T10:06:49.524Z,99969.64
2017-09-10T10:09:24.240Z,99974.73
2017-09-10T10:11:59.603Z,99972.89
2017-09-10T10:14:34.332Z,99970.17
2017-09-10T10:17:09.167Z,99963.64
2017-09-10T10:19:44.048Z,99958.45
2017-09-10T10:22:18.477Z,99978.48
2017-09-10T10:24:53.278Z,99964.94
2017-09-10T10:27:28.036Z,99972.20
2017-09-10T10:30:03.261Z,99973.72
2017-09-10T10:32:37.980Z,99971.23
2017-09-10T10:35:12.821Z,99955.36
2017-09-10T10:37:47.868Z,99965.07
2017-09-10T10:40:22.991Z,99949.10
2017-09-10T10:42:58.037Z,99949.44
2017-09-10T10:45:33.080Z,99951.89
2017-09-10T10:48:08.416Z,99946.30
2017-09-10T10:50:43.400Z,99948.23
2017-09-10T10:53:18.536Z,99943.98
2017-09-10T10:55:53.312Z,99941.37
2017-09-10T10:58:28.140Z,99936.94
2017-09-10T11:01:03.074Z,99932.02
2017-09-10T11:03:38.019Z,99936.52
2017-09-10T11:06:12.948Z,99943.33
2017-09-10T11:08:47.952Z,99942.09
2017-09-10T11:11:22.717Z,99931.13
2017-09-10T11:13:57.236Z,99934.55
2017-09-10T11:16:31.941Z,99936.57
2017-09-10T11:19:06.660Z,99925.23
2017-09-10T11:21:41.397Z,99932.16
2017-09-10T11:24:16.180Z,99922.53
2017-09-10T11:26:51.000Z,99932.98
2017-09-10T11:29:25.808Z,99930.83
2017-09-10T11:32:00.431Z,99926.25
2017-09-10T11:34:35.188Z,99923.58
2017-09-10T11:37:10.073Z,99931.87
2017-09-10T11:39:44.715Z,99926.23
2017-09-10T11:42:19.601Z,99923.25
2017-09-10T11:44:54.469Z,99927.58
2017-09-10T11:47:29.489Z,99927.85
2017-09-10T11:50:04.111Z,99926.65
2017-09-10T11:52:38.992Z,99933.05
2017-09-10T11:55:13.712Z,99934.28
2017-09-10T11:57:48.629Z,99935.56
2017-09-10T12:00:23.253Z,99926.06
2017-09-10T12:02:58.694Z,99922.86
2017-09-10T12:05:33.397Z,99921.02
2017-09-10T12:08:08.304Z,99919.63
2017-09-10T12:10:43.208Z,99926.16
2017-09-10T12:13:18.704Z,99923.34
2017-09-10T12:15:53.227Z,99925.80
2017-09-10T12:18:28.261Z,99916.93
2017-09-10T12:21:04.145Z,99900.11
2017-09-10T12:23:38.776Z,99894.63
2017-09-10T12:26:13.780Z,99895.41
2017-09-10T12:28:48.789Z,99895.09
2017-09-10T12:31:23.789Z,99892.49
2017-09-10T12:33:58.973Z,99882.55
2017-09-10T12:36:33.997Z,99880.70
2017-09-10T12:39:08.728Z,99883.67
2017-09-10T12:41:43.776Z,99880.25
2017-09-10T12:44:18.792Z,99876.13
2017-09-10T12:46:53.913Z,99879.48
2017-09-10T12:49:28.847Z,99866.95
2017-09-10T12:52:03.644Z,99859.19
2017-09-10T12:54:38.503Z,99869.27
2017-09-10T12:57:13.349Z,99875.30
2017-09-10T12:59:47.840Z,99869.72
2017-09-10T13:02:22.636Z,99866.02
2017-09-10T13:04:57.714Z,99856.69
2017-09-10T13:07:32.444Z,99849.91
2017-09-10T13:10:07.591Z,99853.91
2017-09-10T13:12:42.420Z,99856.48
2017-09-10T13:15:17.144Z,99853.41
2017-09-10T13:17:51.733Z,99842.81
2017-09-10T13:20:26.704Z,99839.66
2017-09-10T13:23:01.380Z,99832.96
2017-09-10T13:25:36.021Z,99826.52
2017-09-10T13:28:10.787Z,99821.97
2017-09-10T13:30:45.668Z,99816.39
2017-09-10T13:33:20.425Z,99832.77
2017-09-10T13:35:55.233Z,99824.98
2017-09-10T13:38:30.385Z,99831.69
2017-09-10T13:41:04.879Z,99824.05
2017-09-10T13:43:39.679Z,99820.98
2017-09-10T13:46:14.545Z,99822.02
2017-09-10T13:48:49.468Z,99804.99
2017-09-10T13:51:24.441Z,99811.94
2017-09-10T13:53:59.471Z,99811.52
2017-09-10T13:56:34.032Z,99806.25
2017-09-10T13:59:09.340Z,99793.74
2017-09-10T14:01:44.512Z,99798.17
2017-09-10T14:04:20.413Z,99789.56
2017-09-10T14:06:55.096Z,99788.19
2017-09-10T14:09:29.856Z,99794.50
2017-09-10T14:12:04.756Z,99792.54
2017-09-10T14:14:39.472Z,99813.32
2017-09-10T14:17:14.260Z,99822.48
2017-09-10T14:19:49.208Z,99813.48
2017-09-10T14:22:24.111Z,99809.01
2017-09-10T14:24:58.869Z,99801.28
2017-09-10T14:27:33.496Z,99793.57
2017-09-10T14:30:08.424Z,99793.64
2017-09-10T14:32:43.332Z,99785.63
2017-09-10T14:35:17.969Z,99788.16
2017-09-10T14:37:52.762Z,99789.48
2017-09-10T14:40:27.297Z,99785.53
2017-09-10T14:43:01.838Z,99781.20
2017-09-10T14:45:36.968Z,99771.98
2017-09-10T14:48:11.676Z,99771.81
2017-09-10T14:50:46.561Z,99766.02
2017-09-10T14:53:21.560Z,99775.97
2017-09-10T14:55:56.533Z,99783.77
2017-09-10T14:58:31.292Z,99785.27
2017-09-10T15:01:06.048Z,99780.78
2017-09-10T15:03:40.891Z,99787.95
2017-09-10T15:06:15.871Z,99785.33
2017-09-10T15:08:50.556Z,99783.67
2017-09-10T15:11:25.948Z,99782.67
2017-09-10T15:14:01.041Z,99776.84
2017-09-10T15:16:36.096Z,99770.83
2017-09-10T15:19:10.992Z,99771.47
2017-09-10T15:21:45.811Z,99777.32
2017-09-10T15:24:20.809Z,99789.39
2017-09-10T15:26:55.600Z,99785.28
2017-09-10T15:29:30.349Z,99782.85
2017-09-10T15:32:05.197Z,99777.66
2017-09-10T15:34:40.179Z,99775.46
2017-09-10T15:37:15.276Z,99781.22
2017-09-10T15:39:49.953Z,99777.28
2017-09-10T15:42:24.865Z,99778.77
2017-09-10T15:44:59.633Z,99777.86
2017-09-10T15:47:34.480Z,99780.28
2017-09-10T15:50:09.481Z,99788.54
2017-09-10T15:52:44.800Z,99784.06
2017-09-10T15:55:19.556Z,99775.99
2017-09-10T15:57:54.778Z,99770.83
2017-09-10T16:00:29.564Z,99765.34
2017-09-10T16:03:04.238Z,99765.41
2017-09-10T16:05:39.133Z,99755.76
2017-09-10T16:08:14.127Z,99767.78
2017-09-10T16:10:48.994Z,99770.13
2017-09-10T16:13:23.793Z,99765.66
2017-09-10T16:15:58.498Z,99758.48
2017-09-10T16:18:33.245Z,99756.48
2017-09-10T16:21:08.106Z,99759.28
2017-09-10T16:23:44.224Z,99758.41
2017-09-10T16:26:18.956Z,99761.27
2017-09-10T16:28:53.471Z,99757.47
2017-09-10T16:31:28.533Z,99750.34
2017-09-10T16:34:03.129Z,99754.88
2017-09-10T16:36:38.073Z,99748.83
2017-09-10T16:39:12.700Z,99747.29
2017-09-10T16:41:47.828Z,99750.00
2017-09-10T16:44:22.992Z,99745.67
2017-09-10T16:46:58.221Z,99738.05
2017-09-10T16:49:32.939Z,99722.78
2017-09-10T16:52:07.667Z,99725.85
2017-09-10T16:54:42.512Z,99715.48
2017-09-10T16:57:18.008Z,99723.00
2017-09-10T16:59:52.500Z,99709.33
2017-09-10T17:02:27.532Z,99704.78
2017-09-10T17:05:02.285Z,99703.63
2017-09-10T17:07:36.996Z,99712.05
2017-09-10T17:10:11.860Z,99712.16
2017-09-10T17:12:46.644Z,99717.30
2017-09-10T17:15:21.677Z,99711.40
2017-09-10T17:17:56.309Z,99701.75
2017-09-10T17:20:31.284Z,99702.56
2017-09-10T17:23:05.989Z,99707.65
2017-09-10T17:25:40.793Z,99702.08
2017-09-10T17:28:15.921Z,99714.33
2017-09-10T17:30:50.744Z,99706.23
2017-09-10T17:33:25.673Z,99711.48
2017-09-10T17:36:00.648Z,99709.72
2017-09-10T17:38:35.561Z,99702.87
2017-09-10T17:41:10.189Z,99696.11
2017-09-10T17:43:45.319Z,99692.70
2017-09-10T17:46:20.065Z,99688.70
2017-09-10T17:48:54.847Z,99689.98
2017-09-10T17:51:29.925Z,99690.48
2017-09-10T17:54:04.592Z,99698.25
2017-09-10T17:56:39.452Z,99690.66
2017-09-10T17:59:14.213Z,99690.30
2017-09-10T18:01:49.003Z,99688.00
2017-09-10T18:04:23.875Z,99687.13
2017-09-10T18:07:00.456Z,99689.73
2017-09-10T18:09:35.053Z,99689.09
2017-09-10T18:12:09.959Z,99678.17
2017-09-10T18:14:45.224Z,99689.77
2017-09-10T18:17:19.848Z,99679.21
2017-09-10T18:19:54.526Z,99681.47
2017-09-10T18:22:29.619Z,99681.61
2017-09-10T18:25:04.336Z,99685.69
2017-09-10T18:27:39.105Z,99677.05
2017-09-10T18:30:14.141Z,99682.81
2017-09-10T18:32:48.981Z,99668.80
2017-09-10T18:35:23.876Z,99666.47
2017-09-10T18:37:58.687Z,99668.70
2017-09-10T18:40:33.421Z,99666.39
2017-09-10T18:43:08.452Z,99670.61
2017-09-10T18:45:43.312Z,99664.97
2017-09-10T18:48:18.328Z,99659.86
2017-09-10T18:50:52.801Z,99658.02
2017-09-10T18:53:27.770Z,99656.56
2017-09-10T18:56:02.333Z,99659.30
2017-09-10T18:58:37.000Z,99651.86
2017-09-10T19:01:11.701Z,99656.77
2017-09-10T19:03:46.345Z,99650.20
2017-09-10T19:06:21.253Z,99642.84
2017-09-10T19:08:56.175Z,99649.30
2017-09-10T19:11:30.937Z,99650.52
2017-09-10T19:14:05.417Z,99639.59
2017-09-10T19:16:40.688Z,99637.42
2017-09-10T19:19:16.004Z,99637.52
2017-09-10T19:21:50.844Z,99633.33
2017-09-10T19:24:25.679Z,99622.34
2017-09-10T19:27:00.713Z,99623.28
2017-09-10T19:29:35.652Z,99622.22
2017-09-10T19:32:10.584Z,99620.86
2017-09-10T19:34:45.464Z,99616.13
2017-09-10T19:37:20.245Z,99610.45
2017-09-10T19:39:55.273Z,99607.90
2017-09-10T19:42:29.991Z,99609.95
2017-09-10T19:45:04.706Z,99606.11
2017-09-10T19:47:39.412Z,99603.41
2017-09-10T19:50:14.709Z,99591.00
2017-09-10T19:52:49.548Z,99586.72
2017-09-10T19:55:24.584Z,99576.78
2017-09-10T19:57:59.645Z,99579.20
2017-09-10T20:00:34.059Z,99575.02
2017-09-10T20:03:08.829Z,99571.03
2017-09-10T20:05:43.725Z,99577.25
2017-09-10T20:08:18.547Z,99574.22
2017-09-10T20:10:53.655Z,99566.66
2017-09-10T20:13:28.417Z,99560.34
2017-09-10T20:16:03.256Z,99559.65
2017-09-10T20:18:37.959Z,99568.28
2017-09-10T20:21:12.464Z,99567.27
2017-09-10T20:23:47.640Z,99563.77
2017-09-10T20:26:22.556Z,99553.84
2017-09-10T20:28:57.332Z,99553.67
2017-09-10T20:31:32.042Z,99546.67
2017-09-10T20:34:07.083Z,99545.79
2017-09-10T20:36:41.988Z,99535.75
2017-09-10T20:39:16.908Z,99535.22
2017-09-10T20:41:51.537Z,99528.55
2017-09-10T20:44:26.342Z,99518.70
2017-09-10T20:47:01.140Z,99521.66
2017-09-10T20:49:36.009Z,99521.13
2017-09-10T20:52:10.482Z,99521.05
2017-09-10T20:54:45.422Z,99517.43
2017-09-10T20:57:20.128Z,99514.81
2017-09-10T20:59:55.077Z,99516.22
2017-09-10T21:02:29.615Z,99509.67
2017-09-10T21:05:04.409Z,99500.43
2017-09-10T21:07:40.344Z,99498.30
2017-09-10T21:10:15.007Z,99497.67
2017-09-10T21:12:50.073Z,99499.42
2017-09-10T21:15:24.588Z,99491.47
2017-09-10T21:17:59.387Z,99497.62
2017-09-10T21:20:34.317Z,99485.61
2017-09-10T21:23:08.963Z,99489.63
2017-09-10T21:25:43.392Z,99487.59
2017-09-10T21:28:17.940Z,99477.27
2017-09-10T21:30:52.616Z,99476.16
2017-09-10T21:33:27.436Z,99474.88
2017-09-10T21:36:02.239Z,99473.54
2017-09-10T21:38:37.085Z,99473.78
2017-09-10T21:41:12.247Z,99473.29
2017-09-10T21:43:47.121Z,99469.25
2017-09-10T21:46:21.696Z,99461.07
2017-09-10T21:48:56.735Z,99456.09
2017-09-10T21:51:31.917Z,99461.52
2017-09-10T21:54:06.450Z,99451.87
2017-09-10T21:56:41.020Z,99459.63
2017-09-10T21:59:16.118Z,99448.70
2017-09-10T22:01:50.503Z,99453.52
2017-09-10T22:04:25.534Z,99446.84
2017-09-10T22:07:00.354Z,99447.05
2017-09-10T22:09:35.784Z,99442.55
2017-09-10T22:12:10.624Z,99446.20
2017-09-10T22:14:45.343Z,99448.14
2017-09-10T22:17:20.171Z,99438.23
2017-09-10T22:19:54.925Z,99441.12
2017-09-10T22:22:29.685Z,99429.94
2017-09-10T22:25:04.708Z,99433.34
2017-09-10T22:27:39.518Z,99429.06
2017-09-10T22:30:14.131Z,99425.07
2017-09-10T22:32:48.868Z,99415.97
2017-09-10T22:35:23.621Z,99413.41
2017-09-10T22:38:41.740Z,99408.53
2017-09-10T22:41:17.235Z,99404.14
2017-09-10T22:43:51.859Z,99406.86
2017-09-10T22:46:26.412Z,99392.70
2017-09-10T22:49:01.065Z,99393.52
2017-09-10T22:51:35.695Z,99383.59
2017-09-10T22:54:10.540Z,99384.80
2017-09-10T22:56:45.298Z,99376.85
2017-09-10T22:59:20.123Z,99373.59
2017-09-10T23:01:55.825Z,99376.91
2017-09-10T23:04:30.775Z,99372.55
2017-09-10T23:10:10.810Z,99369.83
2017-09-10T23:12:45.884Z,99364.52
2017-09-10T23:15:20.684Z,99362.48
2017-09-10T23:17:55.185Z,99351.36
2017-09-10T23:20:30.129Z,99356.10
2017-09-10T23:23:04.708Z,99358.84
2017-09-10T23:25:39.274Z,99345.63
2017-09-10T23:28:14.041Z,99340.66
2017-09-10T23:30:49.005Z,99335.80
2017-09-10T23:33:23.677Z,99336.20
2017-09-10T23:35:58.456Z,99328.05
2017-09-10T23:38:33.171Z,99329.02
2017-09-10T23:41:08.053Z,99324.66
2017-09-10T23:43:42.766Z,99325.64
2017-09-10T23:46:17.255Z,99313.47
2017-09-10T23:48:52.160Z,99322.75
2017-09-10T23:51:26.969Z,99322.14
2017-09-10T23:54:01.701Z,99305.11
2017-09-10T23:56:36.399Z,99319.70
2017-09-10T23:59:11.224Z,99298.68
